Terminal Aerodrome Forecast
Issued by NWS Wilmington, OH

Current Version | Previous Version | Text Only | Print | Product List | Glossary Off
Versions: 1 2 3 4 5 6 7 8 9 10 11 12 13 14

000
FTUS41 KILN 171737
TAFDAY
TAF
KDAY 171737Z 1718/1818 VRB04KT P6SM FEW040 BKN060
     FM172000 34005KT P6SM VCSH BKN060
     FM172300 VRB03KT P6SM FEW060
     FM180900 VRB03KT 5SM BR SKC
     FM181300 VRB04KT P6SM SKC
     FM181500 21004KT P6SM SCT050=

USA.gov is the U.S. government's official web portal to all federal, state and local government web resources and services.